Airfield :
LOGIN :

Register | Disclaimer

   EN    FR    IT 

 










Legend :    VFR   Marginal VFR   IFR   Intensive IFR   Very Intensive IFR
Visi :
Ceiling :
>= 8 km
>= 3000ft
5 to 8 km
1000 to 3000 ft
1500m to 5 km
500 to 1000 ft
800 to 1500m
200 to 500 ft
< 800m
< 200 ft
Symbols :   Thunderstorms  Fog  Heavy snow  Heavy precipitations  Wind > 20 kt
SIGMETs :     Misc.  Thunderstorms  Icing  Turbulence  Mountain Waves  Volcanic Ashes







- Airport Elevation : 62 ft
- IATA code : TAN


GMTT - Tanger Ibn Batouta

CURRENT METAR :
  • 270300Z 00000KT 8000 R28///// SCT016 SCT080 13/11 Q1011 NOSIG

EXPIRED METARs :
  • 270230Z 00000KT 8000 R28///// SCT016 SCT080 13/11 Q1011 NOSIG
  • 270200Z 20003KT 150V250 8000 SCT016 SCT080 14/12 Q1011 NOSIG
  • 270130Z 00000KT 8000 R28///// SCT016 SCT080 13/11 Q1011 NOSIG
  • 270100Z 21004KT 8000 SCT016 SCT080 14/12 Q1011 NOSIG
  • 270030Z 00000KT 8000 SCT016 SCT080 14/11 Q1011 NOSIG

TAF TAF GMTT
Valid from the 26 at 18:00 until the 28 at 00:00 UTC


261700Z 2618/2724 26010KT 8000 SCT016 BKN200
PROB40
TEMPO 2715/2724 3000 RA BKN013 SCT100
No reported NOTAMs for that airfield.
1 SIGMET reported for the Casablanca FIR (GMMM) :
 
Severe mountain waves
GMMM SIGMET W4 VALID 270210/270610 GMMC
GMMM CASABLANCA FIR SEV MTW FCST E OF LINE N3400 W00140 - N3142 W006 52 - N3027 W00830 - N2913 W00749 FL040/160 STNR NC=



MET'MAP, your aeronautical weather chart ! - Copyright ORBIFLY December 2007 - Disclaimer

ORBIFLY MET'MAP TEAM :

Programming & Development : Alexandra Zaïnal
Concept & Development : Baudouin d'Aumeries
Co-Development & Prog : Marc-Olivier Méhu
Technical & hardware support : Manuel Goepfert

Contact : metmap@orbifly.com




SOURCES & CREDITS :

   NOAA